Time;durP1;ratioP1;P1;durP2;ratioP2;P2;SDS_P1;SDS_P2;PMS_P1;PMS_P2;Temp;Humidity;BMP_temperature;BMP_pressure;BME280_temperature;BME280_humidity;BME280_pressure;Samples;Min_cycle;Max_cycle;Signal;HPM_P1;HPM_P2
2023/04/01 00:02:04;;;;;;;;;;;;;;;8.89;72.00;96509.28;5099155;28;19924;-58
2023/04/01 00:04:32;;;;;;;;;;;;;;;8.93;71.96;96507.50;5103566;28;19923;-57
2023/04/01 00:07:01;;;;;;;;;;;;;;;8.88;72.04;96499.59;5096121;28;19973;-57
2023/04/01 00:09:29;;;;;;;;;;;;;;;8.90;71.42;96505.47;5105498;28;20390;-57
2023/04/01 00:11:57;;;;;;;;;;;;;;;8.99;71.50;96497.25;5110733;28;19924;-57
2023/04/01 00:14:25;;;;;;;;;;;;;;;9.05;71.25;96501.31;5107963;28;19923;-57
2023/04/01 00:16:53;;;;;;;;;;;;;;;9.02;70.69;96491.97;5094703;28;19931;-57
2023/04/01 00:19:22;;;;;;;;;;;;;;;9.06;70.93;96502.94;5111224;28;19927;-58
2023/04/01 00:21:53;;;;;;;;;;;;;;;8.92;71.48;96498.59;5101649;28;19924;-58
2023/04/01 00:24:20;;;;;;;;;;;;;;;9.06;70.88;96497.50;5107285;28;20365;-58
2023/04/01 00:26:48;;;;;;;;;;;;;;;9.13;70.71;96497.75;5101261;28;19950;-57
2023/04/01 00:29:16;;;;;;;;;;;;;;;9.18;70.58;96508.34;5099442;28;19943;-57
2023/04/01 00:31:44;;;;;;;;;;;;;;;9.22;69.94;96500.38;5078613;28;19994;-57
2023/04/01 00:34:12;;;;;;;;;;;;;;;9.15;70.06;96495.47;5096508;28;19930;-57
2023/04/01 00:36:41;;;;;;;;;;;;;;;9.10;70.29;96495.69;5106690;28;20470;-57
2023/04/01 00:39:09;;;;;;;;;;;;;;;9.13;69.89;96495.81;5092806;28;19932;-60
2023/04/01 00:41:37;;;;;;;;;;;;;;;9.20;69.72;96503.38;5089241;28;20301;-57
2023/04/01 00:44:20;;;;;;;;;;;;;;;9.19;69.63;96499.88;5107816;28;19928;-57
2023/04/01 00:46:48;;;;;;;;;;;;;;;9.25;69.55;96505.88;5071919;28;19928;-58
2023/04/01 00:49:16;;;;;;;;;;;;;;;9.22;69.46;96497.66;5106548;28;20266;-58
2023/04/01 00:51:45;;;;;;;;;;;;;;;9.13;69.98;96505.88;5108561;28;19924;-57
2023/04/01 00:54:13;;;;;;;;;;;;;;;9.14;69.85;96500.09;5101357;27;20010;-57
2023/04/01 00:56:42;;;;;;;;;;;;;;;9.14;69.40;96491.97;5107908;28;19932;-57
2023/04/01 00:59:11;;;;;;;;;;;;;;;9.15;69.63;96504.38;5091981;28;20257;-57
2023/04/01 01:01:41;;;;;;;;;;;;;;;9.10;69.20;96492.97;5083423;28;19928;-57
2023/04/01 01:04:20;;;;;;;;;;;;;;;9.14;69.58;96491.97;5087410;28;19932;-57
2023/04/01 01:06:52;;;;;;;;;;;;;;;9.20;69.96;96492.53;5089562;28;19953;-57
2023/04/01 01:09:27;;;;;;;;;;;;;;;9.17;69.12;96498.66;5106108;28;19960;-58
2023/04/01 01:11:57;;;;;;;;;;;;;;;9.11;69.47;96497.28;5086864;28;20433;-57
2023/04/01 01:14:28;;;;;;;;;;;;;;;9.16;68.94;96497.88;5099129;28;19924;-57
2023/04/01 01:16:59;;;;;;;;;;;;;;;9.22;69.10;96495.72;5086303;28;19928;-57
2023/04/01 01:19:34;;;;;;;;;;;;;;;9.23;69.42;96499.22;5098428;28;19928;-57
2023/04/01 01:22:13;;;;;;;;;;;;;;;9.16;68.76;96503.28;5090651;28;19932;-57
2023/04/01 01:24:43;;;;;;;;;;;;;;;9.19;68.59;96496.38;5109111;27;19931;-57
2023/04/01 01:27:11;;;;;;;;;;;;;;;9.22;68.80;96495.72;5094441;27;19963;-57
2023/04/01 01:29:46;;;;;;;;;;;;;;;9.25;68.29;96492.34;5115276;27;19927;-60
2023/04/01 01:32:17;;;;;;;;;;;;;;;9.17;69.03;96494.03;5100188;28;19924;-57
2023/04/01 01:34:46;;;;;;;;;;;;;;;9.16;69.29;96486.22;5099320;28;19956;-57
2023/04/01 01:37:15;;;;;;;;;;;;;;;9.18;69.19;96483.97;5099039;28;20010;-57
2023/04/01 01:39:44;;;;;;;;;;;;;;;9.20;68.58;96487.13;5092002;28;19946;-57
2023/04/01 01:42:12;;;;;;;;;;;;;;;9.15;68.97;96484.63;5105892;27;19930;-58
2023/04/01 01:44:40;;;;;;;;;;;;;;;9.13;68.58;96482.28;5082534;28;19924;-58
2023/04/01 01:47:08;;;;;;;;;;;;;;;9.17;69.02;96488.59;5100092;28;20403;-57
2023/04/01 01:49:36;;;;;;;;;;;;;;;9.14;68.27;96474.94;5098277;28;20369;-58
2023/04/01 01:52:04;;;;;;;;;;;;;;;9.17;68.85;96482.41;5102023;28;19931;-57
2023/04/01 01:54:33;;;;;;;;;;;;;;;9.09;68.42;96484.06;5077089;28;19928;-57
2023/04/01 01:57:03;;;;;;;;;;;;;;;9.09;68.28;96478.66;5103586;28;19923;-58
2023/04/01 01:59:31;;;;;;;;;;;;;;;9.10;68.51;96474.00;5085900;28;19924;-57
2023/04/01 02:01:59;;;;;;;;;;;;;;;9.12;68.29;96469.06;5091387;28;20052;-58
2023/04/01 02:04:27;;;;;;;;;;;;;;;9.16;68.54;96480.78;5106562;28;19924;-57
2023/04/01 02:06:57;;;;;;;;;;;;;;;9.15;68.67;96471.09;5078183;28;19932;-57
2023/04/01 02:09:39;;;;;;;;;;;;;;;9.13;68.24;96476.06;5084986;28;19928;-58
2023/04/01 02:12:12;;;;;;;;;;;;;;;9.18;68.45;96475.84;5085044;28;19928;-57
2023/04/01 02:14:42;;;;;;;;;;;;;;;9.17;68.62;96472.34;5088851;28;19928;-57
2023/04/01 02:17:11;;;;;;;;;;;;;;;9.15;68.55;96465.66;5084597;28;20699;-57
2023/04/01 02:19:39;;;;;;;;;;;;;;;9.12;68.41;96471.78;5085829;28;19924;-57
2023/04/01 02:22:09;;;;;;;;;;;;;;;9.03;68.23;96473.78;5074248;28;20056;-58
2023/04/01 02:24:36;;;;;;;;;;;;;;;9.09;68.58;96464.31;5089719;28;19924;-57
2023/04/01 02:27:06;;;;;;;;;;;;;;;9.14;68.81;96488.47;5087023;28;19928;-59
2023/04/01 02:29:34;;;;;;;;;;;;;;;9.10;68.03;96476.72;5077162;28;19924;-57
2023/04/01 02:32:02;;;;;;;;;;;;;;;9.08;68.48;96473.56;5089561;28;19924;-57
2023/04/01 02:34:30;;;;;;;;;;;;;;;9.18;67.73;96484.75;5090306;28;19953;-57
2023/04/01 02:36:59;;;;;;;;;;;;;;;9.16;67.79;96480.78;5109417;28;20334;-58
2023/04/01 02:39:27;;;;;;;;;;;;;;;9.11;68.11;96486.47;5109029;28;19934;-57
2023/04/01 02:41:55;;;;;;;;;;;;;;;9.05;67.52;96482.34;5085776;28;20336;-57
2023/04/01 02:44:24;;;;;;;;;;;;;;;8.96;68.14;96484.38;5078396;28;19924;-57
2023/04/01 02:46:52;;;;;;;;;;;;;;;9.01;68.86;96487.69;5099291;28;19932;-58
2023/04/01 02:49:20;;;;;;;;;;;;;;;9.08;67.91;96489.81;5092801;28;19974;-57
2023/04/01 02:51:48;;;;;;;;;;;;;;;9.15;68.03;96490.06;5096458;28;19933;-57
2023/04/01 02:54:16;;;;;;;;;;;;;;;9.11;67.71;96484.53;5093483;28;19923;-57
2023/04/01 02:56:46;;;;;;;;;;;;;;;9.18;67.57;96494.81;5080928;28;19925;-57
2023/04/01 02:59:14;;;;;;;;;;;;;;;9.03;67.50;96498.16;5092596;28;19928;-57
2023/04/01 03:01:43;;;;;;;;;;;;;;;9.01;68.17;96493.09;5094827;28;19959;-57
2023/04/01 03:04:11;;;;;;;;;;;;;;;9.03;68.33;96498.97;5083247;28;20420;-58
2023/04/01 03:06:39;;;;;;;;;;;;;;;9.17;67.49;96506.78;5101539;28;19938;-57
2023/04/01 03:09:06;;;;;;;;;;;;;;;9.12;67.67;96496.16;5102811;28;19939;-57
2023/04/01 03:11:35;;;;;;;;;;;;;;;9.11;68.10;96508.13;5107337;28;19923;-61
2023/04/01 03:14:03;;;;;;;;;;;;;;;9.08;67.86;96506.09;5103671;28;20290;-57
2023/04/01 03:16:31;;;;;;;;;;;;;;;9.10;67.72;96499.19;5075150;28;19924;-57
2023/04/01 03:19:01;;;;;;;;;;;;;;;9.06;68.25;96500.22;5075182;28;20365;-58
2023/04/01 03:21:30;;;;;;;;;;;;;;;8.97;67.69;96511.13;5103730;28;19927;-59
2023/04/01 03:23:58;;;;;;;;;;;;;;;9.05;67.98;96506.75;5093434;28;20407;-57
2023/04/01 03:26:27;;;;;;;;;;;;;;;9.04;67.99;96507.88;5089197;28;19927;-59
2023/04/01 03:28:55;;;;;;;;;;;;;;;9.04;67.64;96511.38;5082021;28;20373;-58
2023/04/01 03:31:24;;;;;;;;;;;;;;;8.98;67.81;96511.94;5076610;28;19926;-57
2023/04/01 03:33:55;;;;;;;;;;;;;;;9.08;67.83;96516.91;5110085;28;19931;-59
2023/04/01 03:36:24;;;;;;;;;;;;;;;9.07;68.20;96509.94;5095449;28;19930;-57
2023/04/01 03:38:52;;;;;;;;;;;;;;;9.04;68.34;96519.50;5092391;28;19927;-58
2023/04/01 03:41:28;;;;;;;;;;;;;;;9.00;68.39;96515.06;5092069;28;19992;-57
2023/04/01 03:43:56;;;;;;;;;;;;;;;9.05;69.17;96512.16;5090838;28;19931;-57
2023/04/01 03:46:24;;;;;;;;;;;;;;;9.02;68.25;96523.69;5084609;28;19931;-57
2023/04/01 03:48:52;;;;;;;;;;;;;;;8.94;68.90;96517.22;5098366;28;19928;-57
2023/04/01 03:51:20;;;;;;;;;;;;;;;9.07;67.85;96528.88;5083102;28;20385;-58
2023/04/01 03:53:50;;;;;;;;;;;;;;;9.01;67.84;96524.81;5102504;28;19975;-59
2023/04/01 03:56:20;;;;;;;;;;;;;;;9.04;68.32;96524.91;5105612;28;19928;-58
2023/04/01 03:58:48;;;;;;;;;;;;;;;9.01;67.74;96524.81;5090126;28;19977;-58
2023/04/01 04:01:16;;;;;;;;;;;;;;;9.11;67.98;96524.38;5080011;28;19935;-58
2023/04/01 04:03:45;;;;;;;;;;;;;;;9.03;67.93;96527.97;5110040;28;19935;-58
2023/04/01 04:06:16;;;;;;;;;;;;;;;9.06;67.52;96524.59;5109605;28;20019;-57
2023/04/01 04:08:44;;;;;;;;;;;;;;;9.12;67.69;96534.88;5095312;28;19924;-58
2023/04/01 04:11:16;;;;;;;;;;;;;;;9.03;67.60;96534.16;5092269;28;19931;-58
2023/04/01 04:13:44;;;;;;;;;;;;;;;9.11;67.92;96527.88;5092864;28;19924;-64
2023/04/01 04:16:12;;;;;;;;;;;;;;;9.16;66.62;96530.38;5085834;28;19924;-58
2023/04/01 04:18:46;;;;;;;;;;;;;;;9.06;66.84;96527.31;5104606;28;19931;-59
2023/04/01 04:21:17;;;;;;;;;;;;;;;9.12;67.44;96525.97;5096455;28;19961;-64
2023/04/01 04:23:45;;;;;;;;;;;;;;;9.14;66.65;96529.13;5111641;28;19924;-63
2023/04/01 04:26:17;;;;;;;;;;;;;;;9.09;66.13;96529.34;5098225;28;19927;-58
2023/04/01 04:28:52;;;;;;;;;;;;;;;9.17;66.79;96531.97;5097727;28;19966;-58
2023/04/01 04:31:20;;;;;;;;;;;;;;;9.14;66.54;96529.91;5111968;27;19934;-59
2023/04/01 04:33:51;;;;;;;;;;;;;;;9.14;66.08;96529.13;5112987;28;19924;-59
2023/04/01 04:36:19;;;;;;;;;;;;;;;9.28;65.57;96534.25;5095321;28;19927;-66
2023/04/01 04:38:50;;;;;;;;;;;;;;;9.15;65.97;96528.00;5088980;28;19942;-69
2023/04/01 04:41:21;;;;;;;;;;;;;;;9.23;66.04;96540.66;5092531;28;19953;-58
2023/04/01 04:43:50;;;;;;;;;;;;;;;9.19;65.89;96535.13;5089950;28;19924;-57
2023/04/01 04:46:18;;;;;;;;;;;;;;;9.20;66.18;96530.47;5088855;28;20300;-58
2023/04/01 04:48:48;;;;;;;;;;;;;;;9.18;66.61;96538.97;5094051;28;19934;-58
2023/04/01 04:51:16;;;;;;;;;;;;;;;9.09;67.21;96538.25;5084147;28;19928;-57
2023/04/01 04:53:44;;;;;;;;;;;;;;;9.17;67.83;96533.88;5103922;28;19978;-57
2023/04/01 04:56:12;;;;;;;;;;;;;;;9.15;67.70;96534.19;5108912;28;19939;-57
2023/04/01 04:58:48;;;;;;;;;;;;;;;9.31;67.85;96531.63;5083984;28;20353;-59
2023/04/01 05:01:21;;;;;;;;;;;;;;;9.22;67.54;96541.78;5098647;28;20432;-57
2023/04/01 05:03:51;;;;;;;;;;;;;;;9.34;67.04;96539.09;5109035;28;20283;-62
2023/04/01 05:06:20;;;;;;;;;;;;;;;9.17;67.89;96531.97;5110040;28;20384;-57
2023/04/01 05:08:50;;;;;;;;;;;;;;;9.10;68.46;96542.53;5098764;27;19931;-60
2023/04/01 05:11:19;;;;;;;;;;;;;;;9.28;67.95;96536.94;5086088;28;19927;-58
2023/04/01 05:13:50;;;;;;;;;;;;;;;9.30;67.75;96534.69;5103302;27;19943;-58
2023/04/01 05:16:18;;;;;;;;;;;;;;;9.24;68.18;96539.53;5098415;28;20008;-58
2023/04/01 05:18:46;;;;;;;;;;;;;;;9.31;67.84;96545.19;5106929;28;19924;-58
2023/04/01 05:21:15;;;;;;;;;;;;;;;9.18;68.10;96538.97;5108616;27;19932;-58
2023/04/01 05:23:43;;;;;;;;;;;;;;;9.28;68.13;96540.44;5091501;28;19932;-58
2023/04/01 05:26:12;;;;;;;;;;;;;;;9.17;68.38;96539.31;5091324;28;20015;-58
2023/04/01 05:28:40;;;;;;;;;;;;;;;9.23;68.09;96543.38;5094181;28;19924;-57
2023/04/01 05:31:09;;;;;;;;;;;;;;;9.25;67.04;96543.03;5083940;28;19923;-58
2023/04/01 05:33:39;;;;;;;;;;;;;;;9.35;67.32;96545.31;5108617;27;19939;-63
2023/04/01 05:36:08;;;;;;;;;;;;;;;9.34;66.42;96544.53;5086501;28;19955;-57
2023/04/01 05:38:36;;;;;;;;;;;;;;;9.24;67.16;96536.03;5104242;28;19924;-58
2023/04/01 05:41:05;;;;;;;;;;;;;;;9.31;67.15;96537.06;5107004;28;20011;-58
2023/04/01 05:43:37;;;;;;;;;;;;;;;9.17;67.52;96542.00;5092336;28;19927;-58
2023/04/01 05:46:26;;;;;;;;;;;;;;;9.29;67.84;96535.81;5106294;28;19923;-59
2023/04/01 05:49:09;;;;;;;;;;;;;;;9.35;67.27;96537.19;5083136;28;19924;-58
2023/04/01 05:51:38;;;;;;;;;;;;;;;9.37;66.77;96530.28;5087856;28;19923;-57
2023/04/01 05:54:06;;;;;;;;;;;;;;;9.44;66.14;96527.03;5083647;28;19928;-59
2023/04/01 05:56:34;;;;;;;;;;;;;;;9.52;66.82;96526.13;5088634;28;19924;-60
2023/04/01 05:59:02;;;;;;;;;;;;;;;9.47;66.42;96520.13;5090140;28;19928;-58
2023/04/01 06:01:31;;;;;;;;;;;;;;;9.56;65.74;96542.50;5091818;28;20389;-58
2023/04/01 06:03:59;;;;;;;;;;;;;;;9.53;66.32;96543.19;5103562;28;19924;-59
2023/04/01 06:06:27;;;;;;;;;;;;;;;9.68;65.56;96542.50;5106725;28;19955;-57
2023/04/01 06:09:07;;;;;;;;;;;;;;;9.69;65.49;96542.19;5085837;28;19928;-60
2023/04/01 06:11:37;;;;;;;;;;;;;;;9.65;65.95;96546.72;5090142;28;19976;-57
2023/04/01 06:14:11;;;;;;;;;;;;;;;9.69;65.59;96546.81;5084380;28;19935;-58
2023/04/01 06:16:48;;;;;;;;;;;;;;;9.69;66.04;96549.50;5098814;28;20289;-57
2023/04/01 06:19:23;;;;;;;;;;;;;;;9.67;65.51;96543.66;5086929;28;19950;-58
2023/04/01 06:21:56;;;;;;;;;;;;;;;9.72;65.63;96546.13;5083342;28;19928;-60
2023/04/01 06:24:28;;;;;;;;;;;;;;;9.76;66.55;96544.34;5066556;28;19947;-57
2023/04/01 06:26:58;;;;;;;;;;;;;;;9.78;66.21;96546.69;5070738;28;19925;-58
2023/04/01 06:29:32;;;;;;;;;;;;;;;9.85;65.83;96545.00;5067781;28;20035;-57
2023/04/01 06:32:06;;;;;;;;;;;;;;;9.88;64.83;96549.75;5056021;28;19924;-57
2023/04/01 06:34:40;;;;;;;;;;;;;;;9.77;65.26;96551.34;5071050;28;19928;-57
2023/04/01 06:37:15;;;;;;;;;;;;;;;9.92;65.05;96547.94;5067936;28;19939;-59
2023/04/01 06:39:48;;;;;;;;;;;;;;;10.03;64.50;96558.34;5066858;28;19931;-57
2023/04/01 06:42:20;;;;;;;;;;;;;;;10.15;63.41;96558.31;5080824;28;19928;-57
2023/04/01 06:44:51;;;;;;;;;;;;;;;10.20;63.82;96553.44;5068780;28;19928;-58
2023/04/01 06:47:42;;;;;;;;;;;;;;;10.22;63.31;96555.81;5091007;28;19966;-57
2023/04/01 06:50:31;;;;;;;;;;;;;;;10.25;62.77;96547.03;5084459;28;19931;-58
2023/04/01 06:53:19;;;;;;;;;;;;;;;10.25;62.37;96548.97;5093273;28;20020;-57
2023/04/01 06:56:07;;;;;;;;;;;;;;;10.27;62.15;96549.41;5082609;28;20036;-58
2023/04/01 06:58:54;;;;;;;;;;;;;;;10.35;62.19;96545.78;5090354;28;20391;-58
2023/04/01 07:01:23;;;;;;;;;;;;;;;10.31;61.65;96555.72;5069704;28;19936;-57
2023/04/01 07:03:54;;;;;;;;;;;;;;;10.29;62.04;96544.44;5068237;28;19924;-59
2023/04/01 07:06:24;;;;;;;;;;;;;;;10.40;61.94;96540.13;5091028;28;19931;-58
2023/04/01 07:08:55;;;;;;;;;;;;;;;10.42;61.03;96538.63;5076727;28;19928;-58
2023/04/01 07:11:26;;;;;;;;;;;;;;;10.51;60.99;96532.28;5076009;28;20380;-57
2023/04/01 07:14:26;;;;;;;;;;;;;;;10.60;60.96;96531.00;5081382;28;19930;-58
2023/04/01 07:16:57;;;;;;;;;;;;;;;10.64;60.26;96537.31;5065870;28;19924;-58
2023/04/01 07:19:28;;;;;;;;;;;;;;;10.64;60.73;96539.22;5074768;28;19925;-58
2023/04/01 07:22:06;;;;;;;;;;;;;;;10.75;60.90;96534.88;5078834;28;19928;-58
2023/04/01 07:24:54;;;;;;;;;;;;;;;10.69;61.09;96534.34;5098237;28;19947;-58
2023/04/01 07:27:22;;;;;;;;;;;;;;;10.80;60.21;96533.84;5086459;28;19925;-58
2023/04/01 07:29:50;;;;;;;;;;;;;;;10.73;60.60;96535.25;5112691;28;19923;-58
2023/04/01 07:32:21;;;;;;;;;;;;;;;10.72;59.21;96533.66;5090666;28;19924;-57
2023/04/01 07:35:10;;;;;;;;;;;;;;;10.70;59.32;96530.50;5082905;28;19943;-58
2023/04/01 07:37:40;;;;;;;;;;;;;;;10.82;58.79;96526.16;5090192;28;19977;-58
2023/04/01 07:40:12;;;;;;;;;;;;;;;10.81;60.23;96525.34;5102641;28;19931;-57
2023/04/01 07:42:44;;;;;;;;;;;;;;;10.95;58.79;96536.63;5078919;28;19966;-57
2023/04/01 07:45:14;;;;;;;;;;;;;;;10.70;58.46;96540.56;5078055;28;20390;-57
2023/04/01 07:47:45;;;;;;;;;;;;;;;10.65;58.79;96538.91;5102889;28;19984;-58
2023/04/01 07:50:17;;;;;;;;;;;;;;;10.68;59.60;96548.28;5089080;28;20363;-59
2023/04/01 07:52:46;;;;;;;;;;;;;;;10.73;59.78;96548.81;5106941;28;19966;-58
2023/04/01 07:55:22;;;;;;;;;;;;;;;10.77;59.12;96550.88;5105280;28;20602;-58
2023/04/01 07:57:51;;;;;;;;;;;;;;;10.74;58.96;96541.47;5081400;28;20305;-60
2023/04/01 08:00:20;;;;;;;;;;;;;;;10.82;59.01;96556.84;5096232;28;19935;-58
2023/04/01 08:03:04;;;;;;;;;;;;;;;10.76;58.68;96558.22;5082956;28;19930;-58
2023/04/01 08:05:35;;;;;;;;;;;;;;;10.81;58.62;96563.38;5096429;27;19932;-58
2023/04/01 08:08:06;;;;;;;;;;;;;;;11.04;58.30;96555.50;5089581;28;19928;-58
2023/04/01 08:11:13;;;;;;;;;;;;;;;11.07;57.89;96556.72;5044507;28;19986;-56
2023/04/01 08:14:09;;;;;;;;;;;;;;;11.07;58.29;96548.56;5079079;28;19924;-56
2023/04/01 08:16:58;;;;;;;;;;;;;;;10.96;58.22;96548.28;5097331;28;19931;-59
2023/04/01 08:19:41;;;;;;;;;;;;;;;11.02;58.15;96552.31;5082806;28;19998;-59
2023/04/01 08:22:11;;;;;;;;;;;;;;;10.95;58.05;96558.34;5102540;28;19924;-57
2023/04/01 08:24:40;;;;;;;;;;;;;;;11.05;57.63;96556.28;5081841;28;19931;-57
2023/04/01 08:27:22;;;;;;;;;;;;;;;11.09;58.43;96551.75;5078231;28;19924;-56
2023/04/01 08:29:53;;;;;;;;;;;;;;;11.15;57.40;96553.06;5070754;28;19924;-58
2023/04/01 08:32:21;;;;;;;;;;;;;;;11.13;58.03;96552.59;5085342;28;19924;-58
2023/04/01 08:34:52;;;;;;;;;;;;;;;11.28;57.80;96554.56;5073584;28;19934;-58
2023/04/01 08:37:36;;;;;;;;;;;;;;;11.33;57.39;96550.81;5088367;28;20443;-56
2023/04/01 08:40:09;;;;;;;;;;;;;;;11.38;57.76;96548.63;5064798;28;20389;-56
2023/04/01 08:42:42;;;;;;;;;;;;;;;11.19;57.67;96551.25;5089000;28;19963;-57
2023/04/01 08:45:19;;;;;;;;;;;;;;;11.17;56.82;96537.97;5067635;28;19930;-57
2023/04/01 08:48:08;;;;;;;;;;;;;;;11.17;56.34;96553.50;5087995;28;19928;-56
2023/04/01 08:50:45;;;;;;;;;;;;;;;11.11;57.17;96535.88;5082183;28;20392;-56
2023/04/01 08:53:32;;;;;;;;;;;;;;;11.13;56.96;96541.72;5073005;28;19946;-57
2023/04/01 08:56:06;;;;;;;;;;;;;;;11.05;56.69;96546.22;5088306;28;19925;-58
2023/04/01 08:58:38;;;;;;;;;;;;;;;11.01;57.28;96542.59;5088691;28;20405;-59
2023/04/01 09:01:27;;;;;;;;;;;;;;;11.07;57.87;96537.69;5081483;28;19931;-57
2023/04/01 09:04:01;;;;;;;;;;;;;;;11.11;56.21;96546.75;5085382;28;19924;-58
2023/04/01 09:06:32;;;;;;;;;;;;;;;11.08;56.38;96544.72;5067072;28;19970;-57
2023/04/01 09:09:32;;;;;;;;;;;;;;;11.06;56.40;96541.56;5061771;28;20296;-57
2023/04/01 09:12:34;;;;;;;;;;;;;;;11.16;56.58;96549.22;5042387;28;20357;-57
2023/04/01 09:15:07;;;;;;;;;;;;;;;11.13;56.34;96537.13;5007393;28;19968;-60
2023/04/01 09:17:50;;;;;;;;;;;;;;;11.19;56.36;96546.59;5003514;28;19949;-57
2023/04/01 09:20:35;;;;;;;;;;;;;;;11.22;56.82;96545.09;4985738;28;20000;-57
2023/04/01 09:23:12;;;;;;;;;;;;;;;11.37;56.20;96546.25;5025201;28;19929;-57
2023/04/01 09:25:42;;;;;;;;;;;;;;;11.28;55.80;96544.47;5029960;28;19924;-57
2023/04/01 09:28:11;;;;;;;;;;;;;;;11.43;56.26;96542.91;5027649;28;20513;-57
2023/04/01 09:30:53;;;;;;;;;;;;;;;11.48;55.22;96548.09;5042030;28;20064;-57
2023/04/01 09:33:46;;;;;;;;;;;;;;;11.47;55.73;96540.31;5041018;28;20781;-57
2023/04/01 09:36:22;;;;;;;;;;;;;;;11.33;56.35;96534.50;5042419;28;20360;-56
2023/04/01 09:38:54;;;;;;;;;;;;;;;11.42;56.28;96541.34;5047718;28;20390;-57
2023/04/01 09:41:27;;;;;;;;;;;;;;;11.34;56.42;96545.00;5047285;28;19974;-59
2023/04/01 09:44:15;;;;;;;;;;;;;;;11.23;56.86;96550.16;5030347;28;20286;-58
2023/04/01 09:46:58;;;;;;;;;;;;;;;11.18;57.89;96549.63;5077977;28;20293;-57
2023/04/01 09:49:39;;;;;;;;;;;;;;;11.22;58.01;96550.53;5085031;28;19924;-58
2023/04/01 09:52:14;;;;;;;;;;;;;;;11.17;58.60;96550.78;5094864;28;19924;-57
2023/04/01 09:54:50;;;;;;;;;;;;;;;11.22;58.30;96561.41;5097348;28;19924;-57
2023/04/01 09:57:35;;;;;;;;;;;;;;;11.15;57.41;96544.91;5082339;28;19931;-57
2023/04/01 10:00:42;;;;;;;;;;;;;;;11.09;57.58;96551.75;5100520;28;19993;-58
2023/04/01 10:03:44;;;;;;;;;;;;;;;11.03;58.19;96553.94;5103698;28;20327;-57
2023/04/01 10:06:30;;;;;;;;;;;;;;;10.93;58.16;96560.66;5022960;28;19925;-57
2023/04/01 10:09:08;;;;;;;;;;;;;;;10.97;59.15;96577.84;5024861;28;19953;-57
2023/04/01 10:11:54;;;;;;;;;;;;;;;10.98;58.15;96568.56;5027493;28;20015;-57
2023/04/01 10:14:27;;;;;;;;;;;;;;;10.78;59.64;96569.53;5007730;28;19932;-57
2023/04/01 10:17:23;;;;;;;;;;;;;;;10.82;61.23;96567.72;4994317;28;19932;-59
2023/04/01 10:20:21;;;;;;;;;;;;;;;10.73;62.17;96570.56;5010721;28;19959;-61
2023/04/01 10:23:09;;;;;;;;;;;;;;;10.72;62.60;96568.19;4980662;28;19961;-58
2023/04/01 10:25:51;;;;;;;;;;;;;;;10.85;64.06;96569.72;5020160;28;19952;-57
2023/04/01 10:28:31;;;;;;;;;;;;;;;10.91;63.40;96556.69;5006230;28;20004;-57
2023/04/01 10:31:45;;;;;;;;;;;;;;;10.87;64.77;96575.63;5017616;28;19936;-58
2023/04/01 10:34:28;;;;;;;;;;;;;;;10.92;66.13;96560.97;5024119;28;19925;-57
2023/04/01 10:36:57;;;;;;;;;;;;;;;11.10;65.55;96564.97;5039964;28;19931;-58
2023/04/01 10:39:51;;;;;;;;;;;;;;;11.25;65.98;96560.72;5080394;28;20373;-57
2023/04/01 10:42:44;;;;;;;;;;;;;;;11.28;66.37;96551.84;5075730;28;19935;-57
2023/04/01 10:45:47;;;;;;;;;;;;;;;11.44;67.30;96555.38;5080107;28;20384;-58
2023/04/01 10:48:21;;;;;;;;;;;;;;;10.96;67.35;96553.72;5094209;28;19924;-57
2023/04/01 10:51:06;;;;;;;;;;;;;;;10.84;68.21;96551.84;5072156;28;19928;-57
2023/04/01 10:53:47;;;;;;;;;;;;;;;10.76;69.64;96550.06;5068192;28;19963;-57
2023/04/01 10:56:37;;;;;;;;;;;;;;;10.56;69.86;96551.03;5086902;28;20066;-57
2023/04/01 11:00:02;;;;;;;;;;;;;;;10.59;71.26;96545.69;5055703;28;20296;-57
2023/04/01 11:03:19;;;;;;;;;;;;;;;10.59;71.80;96551.13;5010936;28;20033;-57
2023/04/01 11:06:18;;;;;;;;;;;;;;;10.66;72.07;96550.56;5083267;28;19924;-57
2023/04/01 11:09:05;;;;;;;;;;;;;;;10.53;72.00;96562.59;5087492;28;20424;-58
2023/04/01 11:11:48;;;;;;;;;;;;;;;10.55;72.04;96552.19;5091502;28;20301;-57
2023/04/01 11:14:35;;;;;;;;;;;;;;;10.28;72.68;96561.84;5069498;28;20404;-61
2023/04/01 11:17:22;;;;;;;;;;;;;;;10.19;73.52;96554.59;5087252;28;20300;-57
2023/04/01 11:20:25;;;;;;;;;;;;;;;10.36;73.49;96553.56;5082023;28;20297;-57
2023/04/01 11:23:11;;;;;;;;;;;;;;;10.37;73.54;96559.78;5100866;28;20673;-59
2023/04/01 11:25:51;;;;;;;;;;;;;;;10.13;73.05;96560.59;5093192;28;20647;-57
2023/04/01 11:28:45;;;;;;;;;;;;;;;10.28;73.90;96559.94;5085604;28;20334;-56
2023/04/01 11:31:24;;;;;;;;;;;;;;;10.24;73.33;96567.19;5101201;28;20393;-57
2023/04/01 11:33:53;;;;;;;;;;;;;;;10.28;72.26;96559.94;5112204;28;19923;-57
2023/04/01 11:36:28;;;;;;;;;;;;;;;10.28;72.78;96572.69;5101195;28;20312;-57
2023/04/01 11:39:01;;;;;;;;;;;;;;;10.23;72.23;96563.66;5092152;28;20246;-57
2023/04/01 11:42:01;;;;;;;;;;;;;;;10.30;72.33;96567.72;5096686;28;19924;-59
2023/04/01 11:44:51;;;;;;;;;;;;;;;10.08;71.55;96563.53;5106991;27;20069;-58
2023/04/01 11:47:43;;;;;;;;;;;;;;;10.17;71.43;96573.16;5103539;28;19932;-57
2023/04/01 11:50:15;;;;;;;;;;;;;;;10.30;70.59;96565.81;5090550;28;19981;-57
2023/04/01 11:52:52;;;;;;;;;;;;;;;10.24;72.02;96572.59;5108488;28;19974;-57
2023/04/01 11:55:25;;;;;;;;;;;;;;;10.36;72.84;96571.78;5110006;28;19928;-57
2023/04/01 11:58:11;;;;;;;;;;;;;;;10.37;72.83;96571.44;5109353;28;20273;-57
2023/04/01 12:00:51;;;;;;;;;;;;;;;10.36;70.85;96577.22;5101782;28;19947;-57
2023/04/01 12:03:26;;;;;;;;;;;;;;;10.39;70.60;96574.63;5111651;28;19930;-57
2023/04/01 12:05:55;;;;;;;;;;;;;;;10.41;69.88;96576.97;5106469;28;20369;-57
2023/04/01 12:08:29;;;;;;;;;;;;;;;10.44;70.79;96579.81;5109516;28;19946;-58
2023/04/01 12:10:58;;;;;;;;;;;;;;;10.45;69.81;96581.38;5104570;28;19936;-58
2023/04/01 12:13:30;;;;;;;;;;;;;;;10.41;69.21;96576.97;5108218;28;19924;-57
2023/04/01 12:16:05;;;;;;;;;;;;;;;10.47;70.29;96575.59;5101966;28;19969;-58
2023/04/01 12:18:35;;;;;;;;;;;;;;;10.58;69.26;96573.22;5084090;28;19924;-57
2023/04/01 12:21:04;;;;;;;;;;;;;;;10.71;69.70;96577.47;5083778;28;19928;-59
2023/04/01 12:23:50;;;;;;;;;;;;;;;10.65;70.04;96578.84;5105367;28;19931;-58
2023/04/01 12:26:39;;;;;;;;;;;;;;;10.60;69.15;96573.63;5109326;28;19931;-57
2023/04/01 12:29:16;;;;;;;;;;;;;;;10.63;70.56;96578.41;5104612;28;20457;-58
2023/04/01 12:31:46;;;;;;;;;;;;;;;10.70;70.51;96576.66;5102639;28;19928;-60
2023/04/01 12:34:33;;;;;;;;;;;;;;;10.54;71.51;96581.25;5105702;28;20334;-58
2023/04/01 12:37:04;;;;;;;;;;;;;;;10.55;70.91;96582.84;5106762;28;19924;-57
2023/04/01 12:39:39;;;;;;;;;;;;;;;10.53;70.21;96578.88;5108963;28;19931;-58
2023/04/01 12:42:09;;;;;;;;;;;;;;;10.48;70.91;96583.41;5089912;28;19928;-58
2023/04/01 12:44:49;;;;;;;;;;;;;;;10.38;71.87;96583.88;5110415;28;19932;-58
2023/04/01 12:47:35;;;;;;;;;;;;;;;10.49;72.13;96585.00;5089815;28;19939;-58
2023/04/01 12:50:13;;;;;;;;;;;;;;;10.55;71.71;96584.78;5081820;28;19950;-58
2023/04/01 12:52:44;;;;;;;;;;;;;;;10.51;71.50;96571.09;5110099;28;19924;-58
2023/04/01 12:55:30;;;;;;;;;;;;;;;10.48;71.87;96577.97;5100271;28;19924;-58
2023/04/01 12:58:04;;;;;;;;;;;;;;;10.51;71.64;96581.16;5107761;28;19924;-58
2023/04/01 13:00:36;;;;;;;;;;;;;;;10.59;70.09;96570.13;5082082;28;19930;-58
2023/04/01 13:03:07;;;;;;;;;;;;;;;10.71;70.27;96569.34;5104170;28;19928;-58
2023/04/01 13:05:41;;;;;;;;;;;;;;;10.80;70.55;96572.69;5101006;28;19924;-57
2023/04/01 13:08:11;;;;;;;;;;;;;;;10.75;69.97;96575.63;5109772;28;19924;-61
2023/04/01 13:10:42;;;;;;;;;;;;;;;10.72;70.78;96585.28;5085705;28;20403;-58
2023/04/01 13:13:22;;;;;;;;;;;;;;;10.80;69.97;96583.53;5104965;28;19931;-59
2023/04/01 13:15:55;;;;;;;;;;;;;;;10.71;69.59;96582.91;5094751;28;19931;-58
2023/04/01 13:18:26;;;;;;;;;;;;;;;10.78;69.43;96580.41;5109904;27;19938;-57
2023/04/01 13:20:55;;;;;;;;;;;;;;;10.92;69.37;96596.28;5110440;28;19924;-57
2023/04/01 13:23:34;;;;;;;;;;;;;;;10.89;68.69;96592.34;5108098;28;20428;-57
2023/04/01 13:26:05;;;;;;;;;;;;;;;10.78;68.50;96591.25;5108846;28;19924;-58
2023/04/01 13:28:44;;;;;;;;;;;;;;;10.83;68.19;96591.03;5104100;28;19927;-60
2023/04/01 13:31:15;;;;;;;;;;;;;;;10.78;69.01;96583.09;5100972;28;19980;-58
2023/04/01 13:33:46;;;;;;;;;;;;;;;10.89;69.16;96592.34;5105541;28;19924;-58